createdAt,value
2022-12-03T00:01:39.975Z,98866.81
2022-12-03T00:04:07.957Z,98862.38
2022-12-03T00:06:35.609Z,98859.56
2022-12-03T00:09:05.022Z,98865.13
2022-12-03T00:11:33.348Z,98860.72
2022-12-03T00:14:00.936Z,98864.00
2022-12-03T00:16:30.222Z,98867.31
2022-12-03T00:18:58.020Z,98871.84
2022-12-03T00:21:25.664Z,98868.03
2022-12-03T00:23:53.312Z,98866.81
2022-12-03T00:26:20.911Z,98866.72
2022-12-03T00:28:49.387Z,98865.59
2022-12-03T00:31:21.385Z,98873.41
2022-12-03T00:33:52.616Z,98870.41
2022-12-03T00:36:20.586Z,98874.16
2022-12-03T00:38:48.261Z,98866.63
2022-12-03T00:41:15.926Z,98866.63
2022-12-03T00:43:43.712Z,98863.25
2022-12-03T00:46:15.779Z,98866.81
2022-12-03T00:48:47.561Z,98863.19
2022-12-03T00:51:15.374Z,98870.34
2022-12-03T00:53:43.073Z,98873.03
2022-12-03T00:56:11.372Z,98871.28
2022-12-03T00:58:38.965Z,98872.16
2022-12-03T01:01:06.685Z,98861.53
2022-12-03T01:03:34.550Z,98866.47
2022-12-03T01:06:02.746Z,98869.03
2022-12-03T01:08:36.303Z,98870.84
2022-12-03T01:11:04.083Z,98868.75
2022-12-03T01:13:31.787Z,98872.91
2022-12-03T01:15:59.465Z,98881.09
2022-12-03T01:18:27.426Z,98883.78
2022-12-03T01:20:55.213Z,98878.44
2022-12-03T01:23:23.167Z,98877.75
2022-12-03T01:25:50.788Z,98885.63
2022-12-03T01:28:18.368Z,98883.09
2022-12-03T01:31:04.335Z,98885.88
2022-12-03T01:33:31.979Z,98881.16
2022-12-03T01:35:59.494Z,98882.22
2022-12-03T01:38:27.018Z,98885.72
2022-12-03T01:40:54.875Z,98882.53
2022-12-03T01:43:22.495Z,98878.63
2022-12-03T01:45:54.554Z,98881.38
2022-12-03T01:48:22.306Z,98881.38
2022-12-03T01:50:50.131Z,98884.53
2022-12-03T01:53:19.090Z,98875.38
2022-12-03T01:55:49.060Z,98880.72
2022-12-03T01:58:22.601Z,98885.47
2022-12-03T02:00:50.164Z,98881.78
2022-12-03T02:03:26.358Z,98886.00
2022-12-03T02:05:54.362Z,98882.59
2022-12-03T02:08:35.388Z,98886.00
2022-12-03T02:11:16.129Z,98886.88
2022-12-03T02:13:50.220Z,98884.72
2022-12-03T02:16:18.074Z,98885.91
2022-12-03T02:18:46.038Z,98878.00
2022-12-03T02:21:41.446Z,98883.97
2022-12-03T02:24:47.067Z,98880.31
2022-12-03T02:27:14.657Z,98876.09
2022-12-03T02:29:42.198Z,98879.38
2022-12-03T02:32:09.905Z,98876.38
2022-12-03T02:34:44.547Z,98869.16
2022-12-03T02:37:37.339Z,98876.09
2022-12-03T02:40:10.861Z,98873.38
2022-12-03T02:42:39.327Z,98882.84
2022-12-03T02:45:21.603Z,98876.38
2022-12-03T02:48:11.402Z,98879.50
2022-12-03T02:50:43.708Z,98890.25
2022-12-03T02:53:19.098Z,98885.22
2022-12-03T02:55:47.780Z,98886.88
2022-12-03T02:58:15.945Z,98887.31
2022-12-03T03:00:45.317Z,98890.06
2022-12-03T03:03:14.193Z,98880.91
2022-12-03T03:05:42.146Z,98884.06
2022-12-03T03:08:11.839Z,98894.31
2022-12-03T03:10:41.651Z,98889.09
2022-12-03T03:13:18.899Z,98882.41
2022-12-03T03:15:47.097Z,98884.75
2022-12-03T03:18:16.009Z,98889.75
2022-12-03T03:20:44.766Z,98883.63
2022-12-03T03:23:12.334Z,98883.25
2022-12-03T03:25:43.275Z,98883.72
2022-12-03T03:28:11.885Z,98878.00
2022-12-03T03:30:41.267Z,98877.25
2022-12-03T03:33:10.504Z,98872.69
2022-12-03T03:35:38.355Z,98869.13
2022-12-03T03:38:07.651Z,98872.22
2022-12-03T03:40:35.746Z,98871.53
2022-12-03T03:43:03.645Z,98871.63
2022-12-03T03:45:31.494Z,98869.41
2022-12-03T03:48:00.670Z,98871.91
2022-12-03T03:50:31.756Z,98878.25
2022-12-03T03:53:01.472Z,98872.69
2022-12-03T03:55:30.112Z,98882.16
2022-12-03T03:57:58.096Z,98859.53
2022-12-03T04:00:26.218Z,98864.59
2022-12-03T04:02:55.471Z,98866.19
2022-12-03T04:05:25.078Z,98867.59
2022-12-03T04:07:52.900Z,98865.88
2022-12-03T04:10:38.875Z,98865.28
2022-12-03T04:13:06.916Z,98864.81
2022-12-03T04:15:34.796Z,98860.13
2022-12-03T04:18:21.476Z,98860.97
2022-12-03T04:20:49.476Z,98861.84
2022-12-03T04:23:17.686Z,98863.06
2022-12-03T04:26:03.602Z,98861.94
2022-12-03T04:28:49.328Z,98859.69
2022-12-03T04:31:35.507Z,98861.59
2022-12-03T04:34:33.858Z,98858.09
2022-12-03T04:37:01.563Z,98858.97
2022-12-03T04:39:29.142Z,98858.78
2022-12-03T04:41:56.795Z,98854.81
2022-12-03T04:44:33.289Z,98845.91
2022-12-03T04:47:07.981Z,98851.94
2022-12-03T04:49:41.926Z,98853.63
2022-12-03T04:52:11.438Z,98852.09
2022-12-03T04:54:39.868Z,98858.25
2022-12-03T04:57:08.317Z,98856.22
2022-12-03T04:59:37.242Z,98851.44
2022-12-03T05:02:06.075Z,98858.53
2022-12-03T05:04:34.450Z,98856.28
2022-12-03T05:07:02.128Z,98846.22
2022-12-03T05:09:30.047Z,98840.16
2022-12-03T05:11:57.727Z,98843.25
2022-12-03T05:14:25.320Z,98847.16
2022-12-03T05:16:52.981Z,98846.47
2022-12-03T05:19:20.834Z,98843.44
2022-12-03T05:21:48.476Z,98855.19
2022-12-03T05:24:16.361Z,98843.34
2022-12-03T05:26:44.182Z,98843.94
2022-12-03T05:29:11.904Z,98843.13
2022-12-03T05:31:39.633Z,98835.22
2022-12-03T05:34:07.333Z,98830.88
2022-12-03T05:36:34.952Z,98830.47
2022-12-03T05:39:02.571Z,98824.16
2022-12-03T05:41:48.532Z,98829.09
2022-12-03T05:44:20.249Z,98834.44
2022-12-03T05:46:48.359Z,98832.03
2022-12-03T05:49:15.997Z,98824.31
2022-12-03T05:51:43.851Z,98820.19
2022-12-03T05:54:11.709Z,98825.38
2022-12-03T05:56:39.279Z,98835.56
2022-12-03T05:59:06.998Z,98828.88
2022-12-03T06:01:34.660Z,98833.47
2022-12-03T06:04:02.297Z,98835.91
2022-12-03T06:06:29.911Z,98842.84
2022-12-03T06:08:57.671Z,98833.28
2022-12-03T06:11:25.390Z,98830.72
2022-12-03T06:13:53.005Z,98823.50
2022-12-03T06:16:20.675Z,98830.16
2022-12-03T06:18:48.291Z,98831.97
2022-12-03T06:21:16.009Z,98834.50
2022-12-03T06:23:44.872Z,98826.75
2022-12-03T06:26:14.328Z,98842.97
2022-12-03T06:28:46.361Z,98839.34
2022-12-03T06:31:14.793Z,98842.66
2022-12-03T06:33:42.405Z,98851.56
2022-12-03T06:36:10.192Z,98844.78
2022-12-03T06:38:37.813Z,98854.44
2022-12-03T06:41:05.539Z,98845.13
2022-12-03T06:43:33.267Z,98858.50
2022-12-03T06:46:00.972Z,98867.19
2022-12-03T06:48:28.670Z,98870.88
2022-12-03T06:50:56.305Z,98863.69
2022-12-03T06:53:34.004Z,98861.56
2022-12-03T06:56:02.914Z,98859.91
2022-12-03T06:58:30.787Z,98860.34
2022-12-03T07:00:58.376Z,98854.06
2022-12-03T07:03:26.066Z,98852.06
2022-12-03T07:05:53.663Z,98848.41
2022-12-03T07:08:21.333Z,98850.84
2022-12-03T07:10:48.945Z,98847.47
2022-12-03T07:13:16.554Z,98838.84
2022-12-03T07:15:44.304Z,98839.25
2022-12-03T07:18:12.084Z,98842.97
2022-12-03T07:20:39.756Z,98846.25
2022-12-03T07:23:07.424Z,98852.34
2022-12-03T07:25:35.125Z,98849.09
2022-12-03T07:28:02.951Z,98852.44
2022-12-03T07:30:30.545Z,98852.00
2022-12-03T07:32:58.146Z,98854.06
2022-12-03T07:35:25.759Z,98852.94
2022-12-03T07:37:53.376Z,98850.59
2022-12-03T07:40:20.957Z,98850.34
2022-12-03T07:42:48.567Z,98845.56
2022-12-03T07:45:16.276Z,98853.44
2022-12-03T07:47:43.857Z,98839.63
2022-12-03T07:50:11.942Z,98844.00
2022-12-03T07:52:39.668Z,98854.88
2022-12-03T07:55:08.007Z,98855.22
2022-12-03T07:57:35.553Z,98852.16
2022-12-03T08:00:05.384Z,98850.53
2022-12-03T08:02:33.105Z,98848.28
2022-12-03T08:05:00.751Z,98843.34
2022-12-03T08:07:28.425Z,98846.28
2022-12-03T08:09:56.307Z,98855.13
2022-12-03T08:12:40.021Z,98849.13
2022-12-03T08:15:15.552Z,98855.84
2022-12-03T08:17:45.463Z,98854.00
2022-12-03T08:20:19.485Z,98856.63
2022-12-03T08:22:51.555Z,98847.16
2022-12-03T08:25:46.230Z,98856.31
2022-12-03T08:28:23.899Z,98856.31
2022-12-03T08:31:13.646Z,98858.41
2022-12-03T08:33:41.825Z,98862.34
2022-12-03T08:36:31.306Z,98856.00
2022-12-03T08:39:02.338Z,98859.84
2022-12-03T08:41:49.620Z,98857.13
2022-12-03T08:44:30.246Z,98853.44
2022-12-03T08:47:10.216Z,98861.22
2022-12-03T08:49:38.540Z,98857.69
2022-12-03T08:52:20.274Z,98847.56
2022-12-03T08:54:56.545Z,98861.59
2022-12-03T08:57:33.203Z,98855.47
2022-12-03T09:00:14.987Z,98859.44
2022-12-03T09:03:00.962Z,98866.28
2022-12-03T09:05:33.289Z,98860.56
2022-12-03T09:08:04.211Z,98862.72
2022-12-03T09:10:31.802Z,98858.91
2022-12-03T09:12:59.501Z,98862.16
2022-12-03T09:15:28.336Z,98856.38
2022-12-03T09:17:56.100Z,98858.50
2022-12-03T09:20:23.732Z,98859.38
2022-12-03T09:22:51.735Z,98857.13
2022-12-03T09:25:19.501Z,98861.06
2022-12-03T09:27:47.367Z,98859.38
2022-12-03T09:30:15.426Z,98858.28
2022-12-03T09:32:43.578Z,98863.78
2022-12-03T09:35:11.253Z,98852.06
2022-12-03T09:37:38.826Z,98844.63
2022-12-03T09:40:08.137Z,98850.88
2022-12-03T09:42:36.135Z,98846.44
2022-12-03T09:45:10.834Z,98856.09
2022-12-03T09:47:45.474Z,98845.94
2022-12-03T09:50:40.772Z,98846.50
2022-12-03T09:53:45.842Z,98838.81
2022-12-03T09:56:21.851Z,98847.84
2022-12-03T09:58:50.033Z,98849.41
2022-12-03T10:01:19.656Z,98848.81
2022-12-03T10:03:52.616Z,98847.31
2022-12-03T10:06:24.304Z,98858.50
2022-12-03T10:08:55.847Z,98859.78
2022-12-03T10:11:25.854Z,98854.59
2022-12-03T10:13:58.510Z,98860.59
2022-12-03T10:16:27.978Z,98855.69
2022-12-03T10:18:59.856Z,98856.41
2022-12-03T10:21:36.851Z,98853.22
2022-12-03T10:24:25.972Z,98846.75
2022-12-03T10:27:00.336Z,98834.97
2022-12-03T10:29:33.945Z,98841.72
2022-12-03T10:32:11.689Z,98833.41
2022-12-03T10:34:44.634Z,98824.16
2022-12-03T10:37:33.090Z,98819.00
2022-12-03T10:40:09.372Z,98820.44
2022-12-03T10:46:21.108Z,98821.38
2022-12-03T10:49:29.944Z,98818.44
2022-12-03T10:52:35.389Z,98811.25
2022-12-03T10:55:42.102Z,98802.91
2022-12-03T10:59:52.441Z,98803.69
2022-12-03T11:02:36.666Z,98799.50
2022-12-03T11:05:58.882Z,98799.25
2022-12-03T11:08:25.216Z,98787.53
2022-12-03T11:11:28.863Z,98789.56
2022-12-03T11:14:01.211Z,98787.41
2022-12-03T11:16:41.025Z,98784.09
2022-12-03T11:19:41.131Z,98780.91
2022-12-03T11:22:14.008Z,98779.75
2022-12-03T11:24:47.100Z,98784.28
2022-12-03T11:27:26.795Z,98781.91
2022-12-03T11:29:58.932Z,98778.84
2022-12-03T11:32:39.343Z,98778.50
2022-12-03T11:35:15.941Z,98774.88
2022-12-03T11:38:52.597Z,98776.19
2022-12-03T11:41:32.871Z,98770.34
2022-12-03T11:44:28.986Z,98766.28
2022-12-03T11:47:03.274Z,98762.44
2022-12-03T11:49:38.860Z,98763.19
2022-12-03T11:52:25.642Z,98752.09
2022-12-03T11:55:04.458Z,98753.69
2022-12-03T11:58:03.143Z,98740.09
2022-12-03T12:00:36.441Z,98746.53
2022-12-03T12:03:07.587Z,98741.94
2022-12-03T12:05:35.986Z,98747.22
2022-12-03T12:08:18.176Z,98736.25
2022-12-03T12:10:54.750Z,98734.50
2022-12-03T12:13:36.125Z,98730.69
2022-12-03T12:16:08.548Z,98729.06
2022-12-03T12:18:42.812Z,98721.94
2022-12-03T12:21:50.085Z,98719.22
2022-12-03T12:24:47.099Z,98729.34
2022-12-03T12:27:45.265Z,98721.50
2022-12-03T12:30:32.122Z,98732.59
2022-12-03T12:33:16.006Z,98724.34
2022-12-03T12:35:43.891Z,98712.47
2022-12-03T12:38:26.354Z,98711.50
2022-12-03T12:40:59.358Z,98715.03
2022-12-03T12:43:31.029Z,98715.84
2022-12-03T12:46:45.590Z,98714.53
2022-12-03T12:49:00.092Z,98713.09
2022-12-03T12:51:30.738Z,98703.97
2022-12-03T12:53:58.718Z,98700.31
2022-12-03T12:56:50.048Z,98689.81
2022-12-03T12:59:40.805Z,98692.75
2022-12-03T13:02:52.581Z,98692.50
2022-12-03T13:05:56.271Z,98682.44
2022-12-03T13:08:56.458Z,98670.16
2022-12-03T13:11:58.879Z,98679.22
2022-12-03T13:14:55.966Z,98679.63
2022-12-03T13:17:37.684Z,98682.69
2022-12-03T13:20:59.192Z,98688.22
2022-12-03T13:23:41.922Z,98687.78
2022-12-03T13:26:47.464Z,98689.47
2022-12-03T13:29:23.570Z,98695.69
2022-12-03T13:32:15.545Z,98691.59
2022-12-03T13:34:47.118Z,98688.22
2022-12-03T13:37:25.934Z,98680.91
2022-12-03T13:40:20.616Z,98683.00
2022-12-03T13:42:58.946Z,98685.72
2022-12-03T13:45:35.320Z,98676.22
2022-12-03T13:48:23.140Z,98676.31
2022-12-03T13:50:52.604Z,98681.91
2022-12-03T13:53:37.827Z,98682.09
2022-12-03T13:56:31.965Z,98681.41
2022-12-03T13:59:07.451Z,98685.31
2022-12-03T14:01:45.862Z,98688.38
2022-12-03T14:04:18.088Z,98678.31
2022-12-03T14:06:52.436Z,98682.00
2022-12-03T14:09:23.547Z,98677.53
2022-12-03T14:12:13.433Z,98673.63
2022-12-03T14:14:44.126Z,98676.56
2022-12-03T14:17:17.076Z,98676.88
2022-12-03T14:20:01.297Z,98674.47
2022-12-03T14:22:33.844Z,98672.84
2022-12-03T14:25:01.589Z,98671.31
2022-12-03T14:27:32.955Z,98666.31
2022-12-03T14:30:25.122Z,98674.72
2022-12-03T14:32:55.659Z,98680.06
2022-12-03T14:35:58.169Z,98681.25
2022-12-03T14:38:31.696Z,98689.19
2022-12-03T14:41:44.855Z,98699.78
2022-12-03T14:48:15.325Z,98696.19
2022-12-03T14:50:55.288Z,98701.28
2022-12-03T14:53:46.516Z,98696.34
2022-12-03T14:56:28.105Z,98701.78
2022-12-03T14:59:06.989Z,98696.72
2022-12-03T15:01:40.528Z,98694.56
2022-12-03T15:07:04.895Z,98696.00
2022-12-03T15:09:37.856Z,98696.56
2022-12-03T15:12:13.135Z,98696.66
2022-12-03T15:14:43.546Z,98689.19
2022-12-03T15:17:12.492Z,98689.75
2022-12-03T15:19:51.609Z,98691.06
2022-12-03T15:22:20.072Z,98686.53
2022-12-03T15:24:48.220Z,98690.75
2022-12-03T15:27:16.101Z,98696.16
2022-12-03T15:29:44.185Z,98686.03
2022-12-03T15:32:12.124Z,98694.53
2022-12-03T15:34:43.016Z,98699.44
2022-12-03T15:37:14.931Z,98691.97
2022-12-03T15:39:48.343Z,98702.72
2022-12-03T15:42:24.205Z,98693.19
2022-12-03T15:44:54.651Z,98686.91
2022-12-03T15:47:22.976Z,98686.28
2022-12-03T15:49:52.177Z,98685.91
2022-12-03T15:52:20.153Z,98694.16
2022-12-03T15:54:49.909Z,98685.66
2022-12-03T15:57:19.285Z,98691.88
2022-12-03T15:59:48.900Z,98687.94
2022-12-03T16:02:19.983Z,98691.94
2022-12-03T16:04:48.230Z,98691.94
2022-12-03T16:07:16.198Z,98679.09
2022-12-03T16:09:44.121Z,98682.38
2022-12-03T16:12:12.191Z,98684.53
2022-12-03T16:14:40.226Z,98677.31
2022-12-03T16:17:08.450Z,98678.47
2022-12-03T16:19:36.669Z,98686.44
2022-12-03T16:22:06.045Z,98674.59
2022-12-03T16:24:33.963Z,98685.41
2022-12-03T16:27:02.544Z,98674.56
2022-12-03T16:29:30.773Z,98671.19
2022-12-03T16:31:58.890Z,98673.22
2022-12-03T16:34:40.350Z,98674.56
2022-12-03T16:37:09.617Z,98672.81
2022-12-03T16:39:50.625Z,98683.75
2022-12-03T16:42:18.459Z,98680.19
2022-12-03T16:45:04.184Z,98673.47
2022-12-03T16:47:34.442Z,98671.44
2022-12-03T16:50:04.715Z,98685.00
2022-12-03T16:52:36.864Z,98678.81
2022-12-03T16:55:12.146Z,98684.53
2022-12-03T16:58:00.413Z,98684.28
2022-12-03T17:00:38.228Z,98674.91
2022-12-03T17:03:13.778Z,98670.97
2022-12-03T17:06:02.334Z,98672.25
2022-12-03T17:08:35.758Z,98670.03
2022-12-03T17:11:04.020Z,98661.97
2022-12-03T17:13:34.768Z,98652.66
2022-12-03T17:16:13.736Z,98661.94
2022-12-03T17:18:41.884Z,98660.25
2022-12-03T17:21:09.925Z,98655.91
2022-12-03T17:23:37.707Z,98656.16
2022-12-03T17:26:05.609Z,98646.22
2022-12-03T17:28:33.461Z,98653.41
2022-12-03T17:31:04.962Z,98643.19
2022-12-03T17:33:33.210Z,98654.31
2022-12-03T17:36:01.449Z,98647.63
2022-12-03T17:38:35.650Z,98646.25
2022-12-03T17:41:08.247Z,98652.59
2022-12-03T17:43:35.913Z,98652.88
2022-12-03T17:46:21.650Z,98650.28
2022-12-03T17:48:49.700Z,98648.88
2022-12-03T17:51:19.462Z,98650.41
2022-12-03T17:53:49.761Z,98647.66
2022-12-03T17:56:18.164Z,98656.19
2022-12-03T17:58:48.492Z,98646.16
2022-12-03T18:01:19.548Z,98651.44
2022-12-03T18:03:50.047Z,98644.78
2022-12-03T18:06:20.389Z,98633.81
2022-12-03T18:08:53.526Z,98636.56
2022-12-03T18:11:25.620Z,98635.97
2022-12-03T18:13:53.799Z,98633.28
2022-12-03T18:16:27.461Z,98638.94
2022-12-03T18:18:58.252Z,98638.94
2022-12-03T18:21:30.838Z,98634.59
2022-12-03T18:24:00.402Z,98639.19
2022-12-03T18:26:40.282Z,98639.59
2022-12-03T18:29:08.218Z,98635.06
2022-12-03T18:31:36.562Z,98634.50
2022-12-03T18:34:04.799Z,98627.59
2022-12-03T18:36:36.519Z,98627.25
2022-12-03T18:39:09.437Z,98626.97
2022-12-03T18:41:42.967Z,98627.53
2022-12-03T18:44:17.135Z,98627.31
2022-12-03T18:46:53.675Z,98621.03
2022-12-03T18:49:28.414Z,98629.22
2022-12-03T18:51:59.903Z,98625.28
2022-12-03T18:54:30.094Z,98625.00
2022-12-03T18:56:59.391Z,98627.81
2022-12-03T18:59:27.603Z,98628.63
2022-12-03T19:01:58.389Z,98631.97
2022-12-03T19:04:27.092Z,98628.59
2022-12-03T19:06:57.249Z,98627.88
2022-12-03T19:09:25.417Z,98618.97
2022-12-03T19:11:56.420Z,98610.81
2022-12-03T19:14:26.842Z,98621.97
2022-12-03T19:16:55.058Z,98624.06
2022-12-03T19:19:30.742Z,98630.38
2022-12-03T19:22:10.075Z,98629.50
2022-12-03T19:24:41.112Z,98626.34
2022-12-03T19:27:14.026Z,98627.78
2022-12-03T19:29:42.381Z,98621.19
2022-12-03T19:32:23.430Z,98622.22
2022-12-03T19:34:54.833Z,98617.94
2022-12-03T19:37:23.025Z,98608.78
2022-12-03T19:39:56.372Z,98606.72
2022-12-03T19:42:28.120Z,98610.41
2022-12-03T19:45:13.807Z,98598.63
2022-12-03T19:47:47.856Z,98608.13
2022-12-03T19:50:23.545Z,98608.50
2022-12-03T19:52:51.887Z,98610.09
2022-12-03T19:55:19.764Z,98602.59
2022-12-03T19:57:50.701Z,98597.56
2022-12-03T20:00:22.540Z,98607.31
2022-12-03T20:02:53.617Z,98609.56
2022-12-03T20:05:30.319Z,98608.13
2022-12-03T20:08:02.219Z,98613.09
2022-12-03T20:10:36.116Z,98604.41
2022-12-03T20:13:04.525Z,98598.47
2022-12-03T20:15:38.012Z,98608.22
2022-12-03T20:18:13.970Z,98599.75
2022-12-03T20:20:42.136Z,98587.16
2022-12-03T20:23:10.621Z,98596.59
2022-12-03T20:25:44.234Z,98599.41
2022-12-03T20:28:13.776Z,98603.25
2022-12-03T20:30:45.488Z,98602.47
2022-12-03T20:33:16.423Z,98599.47
2022-12-03T20:35:44.355Z,98593.44
2022-12-03T20:38:12.332Z,98590.53
2022-12-03T20:40:40.328Z,98590.41
2022-12-03T20:43:08.306Z,98593.31
2022-12-03T20:45:36.340Z,98579.31
2022-12-03T20:48:04.447Z,98581.03
2022-12-03T20:50:32.611Z,98582.94
2022-12-03T20:53:23.867Z,98585.19
2022-12-03T20:56:02.835Z,98585.63
2022-12-03T20:58:37.208Z,98579.81
2022-12-03T21:01:26.533Z,98581.09
2022-12-03T21:03:57.761Z,98572.31
2022-12-03T21:06:29.919Z,98569.44
2022-12-03T21:08:59.426Z,98575.22
2022-12-03T21:11:29.932Z,98573.84
2022-12-03T21:14:08.220Z,98574.38
2022-12-03T21:19:31.022Z,98564.97
2022-12-03T21:21:59.025Z,98574.56
2022-12-03T21:24:28.770Z,98574.31
2022-12-03T21:26:56.814Z,98576.28
2022-12-03T21:29:52.443Z,98568.72
2022-12-03T21:32:23.398Z,98571.97
2022-12-03T21:34:54.208Z,98563.63
2022-12-03T21:37:29.879Z,98565.22
2022-12-03T21:39:57.992Z,98562.53
2022-12-03T21:42:35.617Z,98562.63
2022-12-03T21:45:08.506Z,98567.91
2022-12-03T21:47:37.641Z,98567.84
2022-12-03T21:50:11.597Z,98561.06
2022-12-03T21:52:39.775Z,98558.81
2022-12-03T21:55:10.230Z,98556.75
2022-12-03T21:57:38.689Z,98556.84
2022-12-03T22:00:08.918Z,98553.16
2022-12-03T22:02:46.928Z,98559.47
2022-12-03T22:05:14.947Z,98562.41
2022-12-03T22:07:45.335Z,98555.03
2022-12-03T22:30:26.725Z,98541.19
2022-12-03T22:32:54.342Z,98543.03
2022-12-03T22:35:21.980Z,98543.63
2022-12-03T22:38:14.812Z,98546.41
2022-12-03T22:40:42.636Z,98549.38
2022-12-03T22:43:10.235Z,98541.88
2022-12-03T22:45:37.913Z,98544.44
2022-12-03T22:48:06.101Z,98530.66
2022-12-03T22:50:33.807Z,98536.06
2022-12-03T22:53:04.590Z,98536.72
2022-12-03T22:55:32.317Z,98533.91
2022-12-03T22:58:03.596Z,98529.78
2022-12-03T23:00:35.376Z,98526.56
2022-12-03T23:03:05.013Z,98520.50
2022-12-03T23:05:39.749Z,98511.44
2022-12-03T23:08:11.349Z,98507.53
2022-12-03T23:10:44.181Z,98503.06
2022-12-03T23:13:13.087Z,98514.59
2022-12-03T23:15:49.239Z,98518.66
2022-12-03T23:18:18.376Z,98516.94
2022-12-03T23:20:53.726Z,98509.31
2022-12-03T23:23:23.987Z,98507.53
2022-12-03T23:26:07.434Z,98511.19
2022-12-03T23:28:38.331Z,98502.00
2022-12-03T23:31:18.831Z,98500.34
2022-12-03T23:33:49.501Z,98497.06
2022-12-03T23:36:17.856Z,98478.34
2022-12-03T23:38:48.958Z,98486.00
2022-12-03T23:41:20.451Z,98490.31
2022-12-03T23:43:48.682Z,98485.16
2022-12-03T23:46:21.056Z,98500.88
2022-12-03T23:48:49.863Z,98489.50
2022-12-03T23:51:22.375Z,98501.59
2022-12-03T23:53:50.577Z,98496.66
2022-12-03T23:56:22.570Z,98495.94
2022-12-03T23:58:52.625Z,98489.91
